Time;durP1;ratioP1;P1;durP2;ratioP2;P2;SDS_P1;SDS_P2;PMS_P1;PMS_P2;Temp;Humidity;BMP_temperature;BMP_pressure;BME280_temperature;BME280_humidity;BME280_pressure;Samples;Min_cycle;Max_cycle;Signal;HPM_P1;HPM_P2
2022/09/27 00:01:10;;;;;;;6.38;1.73;;;;;;;12.01;75.69;99638.94;5066476;28;20086;-58
2022/09/27 00:03:35;;;;;;;4.57;1.40;;;;;;;11.91;75.09;99637.09;5068939;28;20110;-58
2022/09/27 00:06:13;;;;;;;5.68;1.70;;;;;;;11.87;75.70;99633.25;5058594;28;20594;-58
2022/09/27 00:08:38;;;;;;;6.03;1.60;;;;;;;11.89;75.62;99636.53;5081143;28;20115;-58
2022/09/27 00:11:07;;;;;;;3.15;1.50;;;;;;;11.91;75.74;99634.31;5073244;28;20602;-58
2022/09/27 00:13:33;;;;;;;5.90;1.58;;;;;;;11.95;75.09;99649.28;5084267;28;20037;-59
2022/09/27 00:15:59;;;;;;;5.57;1.48;;;;;;;11.94;75.21;99641.22;5079341;28;20028;-58
2022/09/27 00:18:25;;;;;;;4.35;1.35;;;;;;;11.93;75.48;99645.97;5083160;28;20033;-58
2022/09/27 00:20:51;;;;;;;4.57;1.42;;;;;;;11.97;75.42;99655.38;5067524;28;20060;-58
2022/09/27 00:23:16;;;;;;;4.82;1.30;;;;;;;11.99;75.45;99652.31;5055233;28;20106;-58
2022/09/27 00:25:42;;;;;;;4.30;1.58;;;;;;;11.99;74.99;99653.16;5060374;28;20054;-57
2022/09/27 00:28:07;;;;;;;3.90;1.20;;;;;;;11.98;75.44;99661.78;5079790;28;20028;-58
2022/09/27 00:30:33;;;;;;;3.42;1.20;;;;;;;12.00;75.06;99671.50;5076336;28;20060;-57
2022/09/27 00:32:58;;;;;;;5.45;1.40;;;;;;;11.99;75.30;99686.53;5076077;28;20150;-57
2022/09/27 00:35:24;;;;;;;5.40;1.58;;;;;;;12.00;75.29;99698.47;5075068;28;20043;-58
2022/09/27 00:37:49;;;;;;;5.80;1.20;;;;;;;11.96;75.11;99681.53;5075886;28;20491;-57
2022/09/27 00:40:15;;;;;;;5.43;1.33;;;;;;;11.93;74.60;99673.78;5079951;28;20032;-58
2022/09/27 00:42:40;;;;;;;2.70;1.17;;;;;;;11.93;74.98;99661.81;5062651;28;20028;-58
2022/09/27 00:45:16;;;;;;;7.35;1.50;;;;;;;11.93;75.09;99671.00;5068033;28;20028;-58
2022/09/27 00:47:49;;;;;;;4.47;1.13;;;;;;;11.90;75.18;99667.97;5060626;28;20024;-58
2022/09/27 00:50:36;;;;;;;4.32;1.50;;;;;;;11.99;75.30;99672.63;5079014;28;20027;-57
2022/09/27 00:53:01;;;;;;;4.18;1.30;;;;;;;11.92;75.18;99666.56;5082668;28;20043;-57
2022/09/27 00:55:32;;;;;;;5.65;1.65;;;;;;;11.91;75.67;99659.34;5060888;28;20048;-58
2022/09/27 00:57:57;;;;;;;7.18;1.33;;;;;;;11.90;75.07;99660.44;5086392;28;20013;-57
2022/09/27 01:00:23;;;;;;;3.58;1.23;;;;;;;11.95;75.36;99665.16;5082038;28;20020;-57
2022/09/27 01:02:51;;;;;;;3.03;1.20;;;;;;;11.92;74.92;99663.78;5084719;28;20100;-58
2022/09/27 01:05:20;;;;;;;4.13;1.30;;;;;;;11.91;75.12;99655.75;5059564;28;20031;-58
2022/09/27 01:07:45;;;;;;;4.32;1.05;;;;;;;11.89;74.70;99664.34;5074329;28;20032;-58
2022/09/27 01:10:11;;;;;;;3.13;1.15;;;;;;;11.91;74.99;99667.69;5078011;28;20446;-58
2022/09/27 01:13:07;;;;;;;3.13;0.95;;;;;;;11.95;74.83;99671.53;5083495;28;20042;-57
2022/09/27 01:15:53;;;;;;;7.22;1.10;;;;;;;11.95;75.15;99679.06;5074569;28;20135;-58
2022/09/27 01:18:55;;;;;;;3.35;1.08;;;;;;;11.96;74.93;99669.59;5080761;28;20047;-58
2022/09/27 01:21:43;;;;;;;4.68;0.93;;;;;;;11.95;74.55;99665.97;5072409;28;20044;-57
2022/09/27 01:24:14;;;;;;;6.10;1.20;;;;;;;11.91;74.21;99667.69;5056391;28;20040;-58
2022/09/27 01:26:45;;;;;;;3.78;1.20;;;;;;;11.89;74.32;99677.44;5053668;28;20565;-57
2022/09/27 01:29:26;;;;;;;2.55;1.10;;;;;;;11.82;74.34;99683.28;5087689;28;20040;-58
2022/09/27 01:32:07;;;;;;;3.42;0.80;;;;;;;11.82;74.79;99686.06;5062400;28;20077;-58
2022/09/27 01:34:42;;;;;;;3.55;1.10;;;;;;;11.81;74.47;99689.97;5079308;28;20506;-57
2022/09/27 01:37:41;;;;;;;3.88;1.10;;;;;;;11.88;74.66;99678.56;5066236;28;20086;-58
2022/09/27 01:40:46;;;;;;;3.17;1.00;;;;;;;11.86;74.66;99689.94;5059770;28;20036;-58
2022/09/27 01:43:23;;;;;;;3.70;0.90;;;;;;;11.80;74.35;99694.69;5060564;28;20060;-58
2022/09/27 01:46:01;;;;;;;4.18;1.13;;;;;;;11.80;74.39;99686.34;5061691;28;20020;-58
2022/09/27 01:48:35;;;;;;;3.63;0.80;;;;;;;11.79;74.30;99698.59;5084548;28;20560;-59
2022/09/27 01:51:10;;;;;;;4.25;0.82;;;;;;;11.79;74.24;99692.22;5073134;28;20071;-59
2022/09/27 01:53:43;;;;;;;2.40;0.80;;;;;;;11.73;74.74;99694.19;5067096;28;20035;-59
2022/09/27 01:56:21;;;;;;;3.47;1.10;;;;;;;11.76;74.36;99709.47;5079544;28;20128;-59
2022/09/27 01:58:55;;;;;;;2.40;0.90;;;;;;;11.77;74.09;99713.91;5078086;28;20042;-59
2022/09/27 02:01:24;;;;;;;3.15;0.65;;;;;;;11.71;73.71;99702.00;5084290;28;20099;-59
2022/09/27 02:03:51;;;;;;;3.42;0.80;;;;;;;11.68;73.57;99696.19;5059585;28;20031;-59
2022/09/27 02:06:25;;;;;;;5.63;0.85;;;;;;;11.69;73.54;99693.09;5063534;28;20050;-59
2022/09/27 02:09:18;;;;;;;2.72;0.70;;;;;;;11.76;73.63;99692.78;5076261;28;20024;-59
2022/09/27 02:11:49;;;;;;;1.92;0.90;;;;;;;11.66;73.16;99698.41;5069033;28;20036;-59
2022/09/27 02:14:26;;;;;;;4.03;1.00;;;;;;;11.67;73.34;99702.84;5080583;28;20487;-59
2022/09/27 02:16:54;;;;;;;5.70;1.08;;;;;;;11.70;73.05;99705.06;5062532;28;20033;-59
2022/09/27 02:19:48;;;;;;;4.13;0.93;;;;;;;11.67;72.86;99702.84;5061144;28;20028;-59
2022/09/27 02:22:37;;;;;;;4.18;1.02;;;;;;;11.66;72.28;99707.56;5083197;28;20119;-59
2022/09/27 02:25:10;;;;;;;4.80;0.77;;;;;;;11.62;72.51;99705.66;5082212;28;20028;-59
2022/09/27 02:27:49;;;;;;;3.38;0.80;;;;;;;11.63;72.44;99710.97;5053304;28;20106;-59
2022/09/27 02:30:14;;;;;;;2.50;0.70;;;;;;;11.61;72.52;99701.25;5069752;28;20098;-58
2022/09/27 02:32:41;;;;;;;4.40;0.98;;;;;;;11.63;72.73;99699.84;5082402;28;20044;-59
2022/09/27 02:35:14;;;;;;;3.53;0.85;;;;;;;11.59;72.25;99704.28;5067250;28;20017;-59
2022/09/27 02:37:39;;;;;;;;;;;;;;;11.78;72.57;99704.44;5064950;28;20487;-59
2022/09/27 02:40:05;;;;;;;3.70;1.17;;;;;;;11.60;72.43;99713.47;5081596;28;19940;-59
2022/09/27 02:42:32;;;;;;;5.22;1.15;;;;;;;11.54;72.59;99719.03;5058354;28;20130;-59
2022/09/27 02:44:58;;;;;;;4.78;0.95;;;;;;;11.48;71.95;99720.22;5080603;28;20032;-59
2022/09/27 02:47:55;;;;;;;1.73;0.68;;;;;;;11.50;72.09;99712.41;5077349;28;20039;-59
2022/09/27 02:50:45;;;;;;;3.80;0.90;;;;;;;11.53;72.14;99706.28;5054864;28;20544;-59
2022/09/27 02:53:40;;;;;;;3.33;1.00;;;;;;;11.41;71.89;99714.13;5084084;28;20039;-59
2022/09/27 02:56:25;;;;;;;4.80;0.82;;;;;;;11.41;71.79;99710.53;5062420;28;20108;-59
2022/09/27 02:59:11;;;;;;;2.75;0.80;;;;;;;11.42;71.81;99703.84;5070449;28;20032;-58
2022/09/27 03:01:58;;;;;;;2.50;0.88;;;;;;;11.37;72.11;99699.16;5082051;28;20502;-59
2022/09/27 03:04:42;;;;;;;3.83;1.30;;;;;;;11.44;72.08;99707.19;5079450;28;20032;-59
2022/09/27 03:07:08;;;;;;;3.38;0.90;;;;;;;11.39;71.99;99701.63;5080333;28;20408;-58
2022/09/27 03:09:43;;;;;;;5.25;1.23;;;;;;;11.37;71.97;99696.38;5078652;28;20705;-58
2022/09/27 03:12:09;;;;;;;3.33;1.27;;;;;;;11.37;72.07;99710.28;5086661;28;20116;-58
2022/09/27 03:14:34;;;;;;;4.80;0.90;;;;;;;11.37;71.89;99704.72;5064692;28;20104;-57
2022/09/27 03:16:59;;;;;;;3.08;0.77;;;;;;;11.34;72.14;99696.94;5083162;28;20032;-57
2022/09/27 03:19:25;;;;;;;2.83;0.73;;;;;;;11.35;71.80;99703.31;5061934;28;20025;-58
2022/09/27 03:21:50;;;;;;;3.30;1.30;;;;;;;11.38;71.58;99697.22;5077558;28;20028;-58
2022/09/27 03:24:15;;;;;;;4.10;1.10;;;;;;;11.34;71.99;99705.28;5073706;28;20378;-57
2022/09/27 03:26:40;;;;;;;6.32;1.20;;;;;;;11.31;72.35;99714.19;5072305;28;20068;-57
2022/09/27 03:29:06;;;;;;;5.47;1.20;;;;;;;11.35;72.33;99720.00;5062980;28;20067;-58
2022/09/27 03:31:31;;;;;;;6.15;1.40;;;;;;;11.36;72.13;99713.31;5070256;28;20028;-58
2022/09/27 03:33:56;;;;;;;6.80;1.10;;;;;;;11.33;72.04;99711.97;5071397;28;20024;-58
2022/09/27 03:36:22;;;;;;;6.15;1.20;;;;;;;11.31;72.46;99714.19;5056033;28;20469;-58
2022/09/27 03:38:47;;;;;;;2.65;1.30;;;;;;;11.27;72.75;99715.88;5063642;28;20029;-58
2022/09/27 03:41:12;;;;;;;5.22;1.45;;;;;;;11.27;72.58;99715.88;5070107;28;20084;-58
2022/09/27 03:43:37;;;;;;;5.97;1.35;;;;;;;11.24;72.45;99720.06;5064133;28;20480;-58
2022/09/27 03:46:03;;;;;;;2.35;1.20;;;;;;;11.28;73.08;99732.28;5062526;28;20103;-58
2022/09/27 03:48:30;;;;;;;6.75;1.30;;;;;;;11.26;72.92;99728.94;5054744;28;20986;-59
2022/09/27 03:50:55;;;;;;;4.25;1.40;;;;;;;11.26;72.66;99728.09;5081198;28;20035;-58
2022/09/27 03:53:21;;;;;;;7.93;1.40;;;;;;;11.24;72.86;99741.47;5065774;28;20025;-58
2022/09/27 03:55:46;;;;;;;5.20;1.20;;;;;;;11.33;72.85;99744.47;5072783;28;20082;-59
2022/09/27 03:58:12;;;;;;;4.60;1.00;;;;;;;11.32;73.33;99757.53;5080366;28;20016;-59
2022/09/27 04:00:37;;;;;;;6.45;1.55;;;;;;;11.32;73.09;99760.31;5077249;28;20096;-58
2022/09/27 04:03:04;;;;;;;5.15;1.20;;;;;;;11.34;73.18;99760.00;5066433;28;20388;-58
2022/09/27 04:05:29;;;;;;;8.30;1.40;;;;;;;11.30;73.29;99768.91;5075312;28;20032;-57
2022/09/27 04:07:55;;;;;;;2.85;0.80;;;;;;;11.31;73.10;99769.75;5081336;28;20047;-58
2022/09/27 04:10:20;;;;;;;3.22;1.00;;;;;;;11.31;73.12;99765.00;5063591;28;20154;-59
2022/09/27 04:12:46;;;;;;;4.32;1.08;;;;;;;11.32;72.82;99771.41;5072985;28;20123;-59
2022/09/27 04:15:11;;;;;;;5.28;0.90;;;;;;;11.29;72.83;99767.25;5082808;28;20391;-58
2022/09/27 04:17:41;;;;;;;6.20;1.25;;;;;;;11.33;72.87;99758.34;5090112;28;20017;-59
2022/09/27 04:20:06;;;;;;;4.72;0.80;;;;;;;11.33;72.39;99756.41;5079830;28;20107;-60
2022/09/27 04:22:32;;;;;;;3.85;1.00;;;;;;;11.32;72.07;99743.66;5075332;28;20169;-56
2022/09/27 04:24:57;;;;;;;3.88;1.20;;;;;;;11.30;72.49;99740.31;5070958;28;20486;-57
2022/09/27 04:27:22;;;;;;;5.15;1.17;;;;;;;11.28;72.04;99731.44;5061857;28;20036;-58
2022/09/27 04:29:48;;;;;;;3.58;0.88;;;;;;;11.22;72.01;99727.84;5076601;28;20055;-57
2022/09/27 04:32:13;;;;;;;3.97;0.85;;;;;;;11.24;71.83;99727.56;5081419;28;20047;-58
2022/09/27 04:37:24;;;;;;;2.28;1.02;;;;;;;11.18;72.58;99723.97;5082381;28;20114;-58
2022/09/27 04:39:50;;;;;;;3.92;0.90;;;;;;;11.24;72.45;99733.13;5065947;28;20035;-57
2022/09/27 04:42:16;;;;;;;3.05;0.93;;;;;;;11.17;72.16;99727.03;5063319;28;20024;-58
2022/09/27 04:44:41;;;;;;;2.30;0.68;;;;;;;11.17;72.13;99727.88;5061758;28;20038;-58
2022/09/27 04:47:07;;;;;;;4.32;0.80;;;;;;;11.19;72.04;99731.19;5084754;28;20460;-58
2022/09/27 04:49:32;;;;;;;2.03;1.00;;;;;;;11.13;72.09;99723.19;5075710;28;20028;-57
2022/09/27 04:52:04;;;;;;;4.97;1.15;;;;;;;11.14;72.28;99731.22;5082422;28;20095;-57
2022/09/27 04:54:30;;;;;;;2.38;0.82;;;;;;;11.14;72.36;99731.22;5088506;28;20109;-58
2022/09/27 04:56:55;;;;;;;3.00;0.90;;;;;;;11.15;72.26;99749.53;5077984;28;20060;-57
2022/09/27 04:59:21;;;;;;;4.10;1.00;;;;;;;11.17;72.50;99752.03;5083155;28;20029;-57
2022/09/27 05:01:46;;;;;;;2.90;1.02;;;;;;;11.15;72.17;99754.25;5062106;28;20031;-57
2022/09/27 05:04:11;;;;;;;3.75;0.90;;;;;;;11.15;72.35;99766.19;5075524;28;20062;-57
2022/09/27 05:06:37;;;;;;;3.17;0.93;;;;;;;11.17;71.86;99763.97;5071986;28;20039;-57
2022/09/27 05:09:02;;;;;;;3.38;0.90;;;;;;;11.13;72.11;99768.44;5073602;28;20033;-58
2022/09/27 05:11:28;;;;;;;2.95;0.80;;;;;;;11.13;72.69;99773.16;5069840;28;20036;-57
2022/09/27 05:13:53;;;;;;;4.25;1.00;;;;;;;11.12;72.27;99766.78;5062371;28;20025;-58
2022/09/27 05:16:18;;;;;;;3.28;1.13;;;;;;;11.12;72.20;99758.44;5073438;28;20028;-58
2022/09/27 05:18:44;;;;;;;1.13;0.80;;;;;;;11.12;72.15;99765.91;5076219;28;20021;-58
2022/09/27 05:21:09;;;;;;;4.60;1.08;;;;;;;11.06;72.31;99774.28;5068005;28;20105;-58
2022/09/27 05:23:35;;;;;;;3.22;0.82;;;;;;;11.10;72.39;99769.00;5051171;28;20032;-58
2022/09/27 05:26:06;;;;;;;1.90;0.70;;;;;;;11.06;72.84;99762.34;5054125;28;20032;-58
2022/09/27 05:28:34;;;;;;;4.85;1.10;;;;;;;11.05;71.98;99767.06;5066075;28;20028;-58
2022/09/27 05:30:59;;;;;;;6.75;0.95;;;;;;;11.03;72.36;99758.19;5063921;28;20068;-57
2022/09/27 05:33:25;;;;;;;1.85;0.75;;;;;;;11.03;72.61;99760.97;5070158;28;20038;-58
2022/09/27 05:35:55;;;;;;;2.72;0.90;;;;;;;11.05;72.33;99761.53;5062194;28;20066;-57
2022/09/27 05:38:20;;;;;;;2.90;0.90;;;;;;;11.06;72.38;99765.94;5067072;28;20131;-57
2022/09/27 05:40:48;;;;;;;2.22;0.85;;;;;;;11.01;72.63;99765.97;5065509;28;20140;-58
2022/09/27 05:43:14;;;;;;;3.42;0.88;;;;;;;11.03;72.56;99763.72;5054391;28;20028;-57
2022/09/27 05:45:40;;;;;;;1.75;0.85;;;;;;;11.03;72.72;99762.91;5059139;28;20430;-57
2022/09/27 05:48:05;;;;;;;4.47;0.80;;;;;;;11.03;72.72;99769.28;5067407;28;20043;-57
2022/09/27 05:50:31;;;;;;;4.07;0.90;;;;;;;11.09;72.76;99767.34;5068078;28;20025;-57
2022/09/27 05:52:56;;;;;;;2.15;0.90;;;;;;;11.06;72.65;99779.00;5071546;28;20079;-57
2022/09/27 05:55:22;;;;;;;1.33;0.80;;;;;;;11.07;72.59;99775.09;5065210;28;20366;-57
2022/09/27 05:57:58;;;;;;;4.03;1.17;;;;;;;11.05;72.83;99778.19;5067802;28;20043;-57
2022/09/27 06:00:26;;;;;;;1.75;1.00;;;;;;;11.02;72.83;99773.19;5069722;28;20081;-57
2022/09/27 06:02:53;;;;;;;5.53;1.13;;;;;;;11.04;72.85;99779.31;5076490;28;20032;-58
2022/09/27 06:05:19;;;;;;;3.67;0.88;;;;;;;11.01;72.75;99776.25;5072101;28;20036;-58
2022/09/27 06:07:45;;;;;;;3.38;0.93;;;;;;;11.02;72.83;99775.13;5069834;28;20039;-57
2022/09/27 06:10:10;;;;;;;4.85;1.08;;;;;;;10.96;73.01;99785.41;5066616;28;20375;-58
2022/09/27 06:12:35;;;;;;;2.38;0.70;;;;;;;10.96;72.92;99779.84;5055553;28;20044;-58
2022/09/27 06:15:01;;;;;;;2.80;1.00;;;;;;;10.93;72.97;99782.38;5069955;28;20024;-57
2022/09/27 06:17:26;;;;;;;3.25;0.70;;;;;;;10.93;72.73;99774.06;5063398;28;20142;-57
2022/09/27 06:19:51;;;;;;;1.20;0.68;;;;;;;10.87;72.57;99769.63;5065961;28;20029;-58
2022/09/27 06:22:16;;;;;;;3.15;0.98;;;;;;;10.92;72.98;99769.59;5083393;28;20464;-58
2022/09/27 06:24:42;;;;;;;3.05;1.13;;;;;;;10.95;72.75;99772.66;5081937;28;20017;-58
2022/09/27 06:27:07;;;;;;;3.00;0.88;;;;;;;10.98;72.66;99780.41;5084399;28;20020;-58
2022/09/27 06:29:34;;;;;;;0.70;0.70;;;;;;;10.95;72.35;99778.19;5091814;28;20516;-58
2022/09/27 06:32:05;;;;;;;2.28;0.80;;;;;;;10.91;72.78;99771.53;5093221;28;20036;-58
2022/09/27 06:34:31;;;;;;;1.83;0.85;;;;;;;10.90;73.00;99772.66;5075643;28;20048;-58
2022/09/27 06:36:56;;;;;;;4.10;0.90;;;;;;;10.92;73.01;99770.44;5089614;28;20050;-58
2022/09/27 06:39:25;;;;;;;1.83;0.80;;;;;;;10.91;72.86;99777.09;5079167;28;20472;-58
2022/09/27 06:41:56;;;;;;;3.20;1.05;;;;;;;10.91;72.81;99781.81;5095242;28;20533;-58
2022/09/27 06:44:23;;;;;;;2.38;1.00;;;;;;;10.92;72.99;99781.53;5055997;28;20065;-58
2022/09/27 06:46:49;;;;;;;1.27;0.98;;;;;;;10.92;73.04;99783.47;5052435;28;20029;-58
2022/09/27 06:49:14;;;;;;;2.70;1.00;;;;;;;10.91;72.81;99781.81;5053665;28;20090;-58
2022/09/27 06:51:39;;;;;;;1.45;1.00;;;;;;;10.87;72.57;99780.72;5054537;28;20036;-58
2022/09/27 06:54:05;;;;;;;5.45;1.52;;;;;;;10.89;73.31;99779.34;5053870;28;20040;-58
2022/09/27 06:56:30;;;;;;;3.03;1.38;;;;;;;10.94;73.14;99776.53;5054887;28;20036;-58
2022/09/27 07:01:39;;;;;;;4.07;1.50;;;;;;;10.92;73.06;99784.31;5054455;28;20047;-58
2022/09/27 07:04:06;;;;;;;2.22;1.60;;;;;;;10.89;72.95;99784.91;5054837;28;20100;-58
2022/09/27 07:06:31;;;;;;;1.95;1.25;;;;;;;10.84;73.43;99778.50;5054296;28;20021;-58
2022/09/27 07:08:56;;;;;;;3.22;1.50;;;;;;;10.91;73.49;99776.28;5060574;28;20028;-58
2022/09/27 07:11:22;;;;;;;1.83;1.40;;;;;;;10.91;73.21;99781.81;5076073;28;20028;-57
2022/09/27 07:13:48;;;;;;;1.80;1.52;;;;;;;10.91;73.27;99785.44;5077724;28;20073;-58
2022/09/27 07:16:13;;;;;;;4.05;1.50;;;;;;;10.90;73.75;99789.31;5090583;28;20036;-58
2022/09/27 07:18:40;;;;;;;2.20;1.55;;;;;;;10.92;73.83;99778.75;5093190;28;20392;-58
2022/09/27 07:21:07;;;;;;;3.90;1.83;;;;;;;10.92;74.05;99787.09;5082555;28;20385;-58
2022/09/27 07:23:33;;;;;;;2.72;1.60;;;;;;;10.98;73.99;99785.16;5089232;28;20071;-56
2022/09/27 07:26:03;;;;;;;2.25;1.42;;;;;;;11.00;73.61;99792.09;5066113;28;20036;-56
2022/09/27 07:28:29;;;;;;;1.75;1.40;;;;;;;11.01;74.00;99793.75;5087101;28;20468;-57
2022/09/27 07:30:55;;;;;;;2.13;1.50;;;;;;;10.94;74.13;99795.97;5083618;28;20089;-57
2022/09/27 07:33:21;;;;;;;1.80;1.35;;;;;;;10.96;74.11;99785.41;5092090;28;20081;-56
2022/09/27 07:35:46;;;;;;;1.85;1.35;;;;;;;10.95;74.32;99800.41;5076499;28;20029;-57
2022/09/27 07:38:12;;;;;;;3.15;1.77;;;;;;;10.99;74.40;99790.41;5090278;28;20067;-57
2022/09/27 07:40:39;;;;;;;2.92;1.80;;;;;;;11.00;74.41;99800.41;5081245;28;20103;-57
2022/09/27 07:43:04;;;;;;;3.22;2.10;;;;;;;11.00;75.00;99796.78;5079047;28;20075;-57
2022/09/27 07:45:31;;;;;;;3.45;2.10;;;;;;;11.04;74.84;99793.19;5079459;28;20427;-57
2022/09/27 07:47:56;;;;;;;2.53;1.80;;;;;;;11.02;74.10;99794.56;5090328;28;20040;-57
2022/09/27 07:50:22;;;;;;;5.45;2.15;;;;;;;10.98;74.54;99799.03;5087875;28;20031;-57
2022/09/27 07:52:51;;;;;;;3.78;2.20;;;;;;;11.01;74.71;99804.03;5082408;28;20020;-57
2022/09/27 07:55:18;;;;;;;3.58;2.22;;;;;;;11.00;74.47;99803.19;5080904;28;20064;-57
2022/09/27 07:57:44;;;;;;;3.88;2.20;;;;;;;11.02;74.75;99803.72;5089260;28;20024;-57
2022/09/27 08:00:16;;;;;;;3.83;2.15;;;;;;;11.05;74.26;99811.50;5065483;28;20023;-57
2022/09/27 08:02:43;;;;;;;4.38;2.65;;;;;;;10.98;74.58;99818.47;5092289;28;20099;-57
2022/09/27 08:05:09;;;;;;;4.75;2.63;;;;;;;11.03;74.60;99812.88;5076076;28;20108;-57
2022/09/27 08:07:35;;;;;;;4.43;2.70;;;;;;;11.02;74.55;99823.16;5083867;28;20468;-57
2022/09/27 08:10:00;;;;;;;5.47;3.08;;;;;;;11.06;74.76;99821.50;5074535;28;20046;-56
2022/09/27 08:12:25;;;;;;;3.70;2.83;;;;;;;11.09;74.54;99824.84;5064558;28;20483;-57
2022/09/27 08:14:51;;;;;;;4.55;2.90;;;;;;;11.07;75.20;99820.38;5053260;28;20033;-57
2022/09/27 08:17:18;;;;;;;2.95;2.63;;;;;;;11.11;74.99;99830.91;5052606;28;20020;-57
2022/09/27 08:19:44;;;;;;;4.78;2.97;;;;;;;11.03;75.00;99827.59;5053494;28;20028;-57
2022/09/27 08:22:12;;;;;;;7.65;3.60;;;;;;;11.03;75.34;99826.78;5052983;28;20469;-57
2022/09/27 08:24:38;;;;;;;3.75;3.35;;;;;;;11.09;75.45;99824.84;5052341;28;20040;-57
2022/09/27 08:27:04;;;;;;;5.18;3.63;;;;;;;11.06;75.49;99824.28;5079138;28;20027;-57
2022/09/27 08:29:30;;;;;;;4.90;4.10;;;;;;;11.05;75.57;99828.16;5081195;28;20141;-57
2022/09/27 08:31:55;;;;;;;6.88;3.97;;;;;;;11.04;75.29;99826.50;5071522;28;20524;-57
2022/09/27 08:34:21;;;;;;;5.28;4.43;;;;;;;11.00;75.43;99821.78;5072731;28;20511;-57
2022/09/27 08:36:46;;;;;;;5.75;4.72;;;;;;;11.06;75.53;99827.03;5072815;28;20115;-57
2022/09/27 08:39:11;;;;;;;6.85;4.90;;;;;;;11.11;75.64;99828.13;5071966;28;20024;-58
2022/09/27 08:41:48;;;;;;;6.18;5.57;;;;;;;11.06;75.17;99812.34;5076278;28;20047;-58
2022/09/27 08:45:03;;;;;;;7.88;5.43;;;;;;;11.13;75.43;99823.16;5089920;28;20056;-58
2022/09/27 08:47:42;;;;;;;6.75;5.90;;;;;;;11.11;75.60;99819.81;5062928;28;20055;-58
2022/09/27 08:50:24;;;;;;;8.45;6.10;;;;;;;11.11;75.59;99826.19;5052936;28;20447;-58
2022/09/27 08:52:52;;;;;;;7.00;6.38;;;;;;;11.10;75.90;99834.81;5051891;28;20503;-58
2022/09/27 08:55:41;;;;;;;7.68;6.88;;;;;;;11.18;75.79;99825.91;5052752;28;20060;-58
2022/09/27 08:58:27;;;;;;;10.15;7.95;;;;;;;11.17;75.71;99827.03;5052409;28;20043;-58
2022/09/27 09:01:02;;;;;;;8.10;7.30;;;;;;;11.19;76.14;99830.34;5052825;28;20036;-58
2022/09/27 09:03:29;;;;;;;8.88;7.97;;;;;;;11.20;76.26;99820.88;5078403;28;20020;-58
2022/09/27 09:06:16;;;;;;;9.93;7.95;;;;;;;11.27;75.79;99832.53;5082332;28;20020;-58
2022/09/27 09:08:57;;;;;;;9.20;7.80;;;;;;;11.25;76.41;99829.22;5087886;28;20472;-58
2022/09/27 09:14:42;;;;;;;14.38;8.20;;;;;;;11.33;75.86;99838.91;5081149;28;20542;-58
2022/09/27 09:17:31;;;;;;;8.38;7.57;;;;;;;11.32;76.24;99838.09;5087342;28;20143;-58
2022/09/27 09:20:16;;;;;;;10.13;7.75;;;;;;;11.36;76.04;99839.19;5080080;28;20035;-59
2022/09/27 09:23:14;;;;;;;9.10;8.02;;;;;;;11.37;75.97;99846.41;5091544;28;20031;-58
2022/09/27 09:26:04;;;;;;;8.85;8.00;;;;;;;11.36;75.88;99850.31;5067697;28;20084;-57
2022/09/27 09:29:08;;;;;;;10.32;8.88;;;;;;;11.33;75.71;99850.88;5076445;28;20039;-58
2022/09/27 09:31:43;;;;;;;11.75;9.27;;;;;;;11.34;76.16;99848.91;5036410;28;20111;-58
2022/09/27 09:34:18;;;;;;;9.85;8.93;;;;;;;11.34;76.18;99844.19;5049958;28;20049;-58
2022/09/27 09:37:10;;;;;;;11.38;10.18;;;;;;;11.37;76.31;99842.78;5053508;28;20041;-57
2022/09/27 09:39:44;;;;;;;12.40;11.10;;;;;;;11.38;76.03;99850.00;5083731;28;20062;-57
2022/09/27 09:42:18;;;;;;;12.88;11.48;;;;;;;11.34;76.32;99843.34;5079274;28;20029;-58
2022/09/27 09:45:00;;;;;;;12.48;11.18;;;;;;;11.38;76.44;99845.28;5088510;28;20383;-58
2022/09/27 09:47:40;;;;;;;13.70;12.40;;;;;;;11.42;76.28;99848.31;5077676;28;20028;-58
2022/09/27 09:50:17;;;;;;;15.20;11.65;;;;;;;11.38;76.12;99848.06;5086564;28;20047;-58
2022/09/27 09:52:48;;;;;;;12.75;11.40;;;;;;;11.25;76.40;99843.94;5091662;28;20032;-58
2022/09/27 09:55:20;;;;;;;11.57;10.45;;;;;;;11.32;76.38;99854.75;5075416;28;20043;-58
2022/09/27 09:57:58;;;;;;;9.80;8.80;;;;;;;11.27;75.99;99851.97;5082092;28;20036;-58
2022/09/27 10:00:24;;;;;;;10.52;8.20;;;;;;;11.27;75.95;99855.59;5062101;28;20025;-58
2022/09/27 10:02:53;;;;;;;8.38;7.57;;;;;;;11.33;76.23;99852.81;5050772;28;20036;-58
2022/09/27 10:05:21;;;;;;;6.90;6.15;;;;;;;11.32;75.89;99854.75;5051966;28;20028;-58
2022/09/27 10:07:49;;;;;;;5.53;4.82;;;;;;;11.35;75.66;99853.34;5051491;28;20477;-58
2022/09/27 10:10:17;;;;;;;4.55;4.10;;;;;;;11.34;75.41;99852.53;5076652;28;20020;-57
2022/09/27 10:12:46;;;;;;;5.63;3.20;;;;;;;11.29;75.01;99855.31;5091865;28;20120;-58
2022/09/27 10:15:15;;;;;;;5.93;2.70;;;;;;;11.30;74.14;99859.75;5090517;28;20040;-58
2022/09/27 10:17:46;;;;;;;3.55;2.20;;;;;;;11.31;74.25;99853.91;5069328;28;20534;-58
2022/09/27 10:20:34;;;;;;;4.40;2.20;;;;;;;11.34;74.53;99855.31;5071801;28;20422;-58
2022/09/27 10:23:10;;;;;;;2.63;2.10;;;;;;;11.30;74.50;99856.97;5071773;28;20066;-58
2022/09/27 10:25:57;;;;;;;3.90;2.00;;;;;;;11.33;74.76;99863.94;5064765;28;20446;-58
2022/09/27 10:28:25;;;;;;;2.80;1.60;;;;;;;11.27;74.97;99865.88;5065231;28;20032;-58
2022/09/27 10:30:56;;;;;;;3.50;1.80;;;;;;;11.26;74.98;99859.47;5086373;28;20071;-55
2022/09/27 10:33:22;;;;;;;3.75;1.40;;;;;;;11.25;73.75;99865.34;5075821;28;20028;-57
2022/09/27 10:35:50;;;;;;;2.60;1.20;;;;;;;11.24;74.11;99866.47;5091319;28;20107;-57
2022/09/27 10:38:19;;;;;;;2.00;1.00;;;;;;;11.25;73.89;99865.34;5064699;28;20234;-57
2022/09/27 10:40:45;;;;;;;0.90;0.73;;;;;;;11.25;73.43;99868.94;5085944;28;20031;-57
2022/09/27 10:43:48;;;;;;;3.55;0.88;;;;;;;11.34;73.78;99869.19;5073446;28;20016;-57
2022/09/27 10:46:40;;;;;;;2.13;0.98;;;;;;;11.24;73.63;99866.47;5057730;28;20041;-57
2022/09/27 10:49:25;;;;;;;1.75;0.90;;;;;;;11.28;73.44;99867.56;5036255;28;20090;-57
2022/09/27 10:52:16;;;;;;;1.63;0.88;;;;;;;11.27;73.13;99868.66;5075174;28;20033;-57
2022/09/27 10:54:55;;;;;;;3.33;0.80;;;;;;;11.24;73.35;99867.28;5079675;28;20496;-57
2022/09/27 10:57:25;;;;;;;3.58;0.90;;;;;;;11.25;73.26;99859.78;5084775;28;20021;-57
2022/09/27 11:00:02;;;;;;;3.50;1.02;;;;;;;11.20;73.71;99870.88;5080823;28;20387;-57
2022/09/27 11:02:34;;;;;;;1.08;0.80;;;;;;;11.26;74.02;99864.22;5075245;28;20024;-57
2022/09/27 11:05:29;;;;;;;2.45;1.08;;;;;;;11.27;73.82;99866.69;5058103;28;20058;-57
2022/09/27 11:08:01;;;;;;;1.75;0.90;;;;;;;11.24;74.19;99867.28;5079410;28;20028;-57
2022/09/27 11:10:35;;;;;;;2.85;1.25;;;;;;;11.21;74.14;99858.69;5093431;28;20036;-57
2022/09/27 11:13:07;;;;;;;0.63;0.60;;;;;;;11.27;73.86;99863.09;5060606;28;20039;-57
2022/09/27 11:15:59;;;;;;;0.70;0.70;;;;;;;11.23;72.77;99867.53;5094408;28;20508;-57
2022/09/27 11:18:50;;;;;;;4.53;0.85;;;;;;;11.28;72.63;99856.44;5067676;28;20040;-57
2022/09/27 11:21:40;;;;;;;2.20;0.82;;;;;;;11.27;72.96;99852.81;5065166;28;20084;-57
2022/09/27 11:24:42;;;;;;;2.55;0.70;;;;;;;11.36;73.64;99839.19;5081512;28;20043;-57
2022/09/27 11:27:30;;;;;;;1.35;0.73;;;;;;;11.37;74.16;99845.56;5072849;28;20036;-57
2022/09/27 11:30:07;;;;;;;1.83;0.80;;;;;;;11.43;73.93;99834.13;5092318;28;20042;-57
2022/09/27 11:33:11;;;;;;;3.22;0.88;;;;;;;11.52;73.30;99837.19;5091468;28;20047;-57
2022/09/27 11:35:51;;;;;;;1.00;0.60;;;;;;;11.58;73.12;99835.22;5082580;28;20051;-57
2022/09/27 11:38:26;;;;;;;3.13;0.85;;;;;;;11.59;72.65;99828.53;5054202;28;20031;-57
2022/09/27 11:40:59;;;;;;;2.08;0.95;;;;;;;11.63;73.13;99832.38;5054178;28;20036;-57
2022/09/27 11:43:47;;;;;;;2.33;0.82;;;;;;;11.70;73.83;99832.91;5055943;28;20116;-57
2022/09/27 11:46:31;;;;;;;2.65;0.82;;;;;;;11.78;73.83;99835.09;5053261;28;20147;-57
2022/09/27 11:49:17;;;;;;;2.53;0.80;;;;;;;11.84;73.60;99833.16;5084195;28;20403;-57
2022/09/27 11:52:04;;;;;;;2.25;0.75;;;;;;;11.83;73.19;99835.13;5094059;28;20036;-58
2022/09/27 11:54:44;;;;;;;1.55;0.80;;;;;;;11.90;73.25;99838.41;5094003;28;20491;-57
2022/09/27 11:57:18;;;;;;;4.25;0.90;;;;;;;11.91;74.13;99840.09;5093280;28;20032;-57
2022/09/27 12:00:09;;;;;;;1.65;0.82;;;;;;;11.96;73.27;99833.66;5091098;28;20024;-57
2022/09/27 12:03:07;;;;;;;2.58;0.90;;;;;;;12.01;72.90;99831.66;5062805;28;20041;-57
2022/09/27 12:05:35;;;;;;;2.85;0.80;;;;;;;12.01;73.16;99830.84;5053694;28;20493;-57